Time;durP1;ratioP1;P1;durP2;ratioP2;P2;SDS_P1;SDS_P2;PMS_P1;PMS_P2;Temp;Humidity;BMP_temperature;BMP_pressure;BME280_temperature;BME280_humidity;BME280_pressure;Samples;Min_cycle;Max_cycle;Signal;HPM_P1;HPM_P2
2023/04/24 00:00:17;;;;;;;8.83;4.60;;;;;;;12.50;73.81;64263.69;5053148;28;20659;-58
2023/04/24 00:02:46;;;;;;;4.90;3.90;;;;;;;12.42;72.95;64254.91;5052921;28;20189;-58
2023/04/24 00:05:17;;;;;;;6.17;4.00;;;;;;;12.71;68.73;64288.13;5052828;28;20186;-57
2023/04/24 00:07:43;;;;;;;6.07;4.70;;;;;;;12.52;68.45;64265.88;5052788;28;20190;-58
2023/04/24 00:10:09;;;;;;;9.33;4.27;;;;;;;12.46;69.76;64253.69;5052800;28;20265;-59
2023/04/24 00:12:35;;;;;;;6.80;4.20;;;;;;;12.31;75.53;64242.31;5052607;28;20205;-58
2023/04/24 00:15:01;;;;;;;5.03;4.17;;;;;;;12.14;74.77;64221.69;5052908;28;20209;-57
2023/04/24 00:17:26;;;;;;;7.33;4.60;;;;;;;12.27;73.52;64237.91;5052011;28;20700;-57
2023/04/24 00:19:58;;;;;;;4.33;3.93;;;;;;;12.35;73.78;64246.69;5052616;28;20220;-59
2023/04/24 00:22:24;;;;;;;6.87;3.50;;;;;;;12.22;73.20;64232.97;5052654;28;20182;-57
2023/04/24 00:24:49;;;;;;;4.50;3.53;;;;;;;12.24;71.54;64232.09;5051696;28;20244;-58
2023/04/24 00:27:15;;;;;;;8.00;4.53;;;;;;;12.35;74.47;64249.22;5052663;28;20212;-57
2023/04/24 00:29:40;;;;;;;9.47;4.27;;;;;;;12.19;75.42;64227.16;5052540;28;20300;-59
2023/04/24 00:32:06;;;;;;;6.23;3.90;;;;;;;12.27;74.21;64241.00;5052393;28;20193;-59
2023/04/24 00:34:32;;;;;;;4.87;3.87;;;;;;;11.89;74.92;64198.78;5052776;28;20568;-58
2023/04/24 00:36:57;;;;;;;5.57;3.53;;;;;;;11.91;76.71;64201.53;5052524;28;20213;-59
2023/04/24 00:39:23;;;;;;;5.53;4.07;;;;;;;12.25;73.83;64235.72;5052248;28;20706;-58
2023/04/24 00:41:50;;;;;;;7.07;3.93;;;;;;;12.31;72.68;64242.31;5052524;28;20576;-57
2023/04/24 00:44:16;;;;;;;7.10;3.93;;;;;;;12.11;74.91;64220.94;5052529;28;20210;-58
2023/04/24 00:46:42;;;;;;;10.20;3.77;;;;;;;11.92;74.79;64199.56;5052308;28;20209;-58
2023/04/24 00:49:08;;;;;;;8.03;4.07;;;;;;;11.61;76.06;64166.09;5034147;28;20676;-57
2023/04/24 00:51:34;;;;;;;5.13;3.73;;;;;;;11.77;76.05;64184.22;5052183;28;20261;-57
2023/04/24 00:54:01;;;;;;;5.57;3.97;;;;;;;11.80;73.51;64187.50;5052039;28;20213;-59
2023/04/24 00:56:27;;;;;;;5.13;4.00;;;;;;;12.16;72.59;64225.88;5051948;28;20220;-57
2023/04/24 00:58:53;;;;;;;5.17;3.73;;;;;;;12.11;74.81;64218.41;5052338;28;20209;-58
2023/04/24 01:01:22;;;;;;;8.60;4.00;;;;;;;12.00;73.87;64205.81;5052162;28;20198;-58
2023/04/24 01:03:51;;;;;;;5.43;4.07;;;;;;;11.99;76.13;64209.75;5052323;28;20248;-60
2023/04/24 01:06:16;;;;;;;5.40;3.70;;;;;;;11.87;72.51;64197.16;5052009;28;20197;-60
2023/04/24 01:08:44;;;;;;;4.93;4.00;;;;;;;11.65;71.89;64173.56;5052063;28;20232;-61
2023/04/24 01:11:10;;;;;;;4.77;4.03;;;;;;;11.67;74.08;64173.25;5051801;28;20197;-60
2023/04/24 01:13:35;;;;;;;7.60;4.00;;;;;;;11.79;73.34;64183.88;5051802;28;20347;-61
2023/04/24 01:16:01;;;;;;;7.17;4.63;;;;;;;12.17;70.83;64230.03;5034025;28;20682;-61
2023/04/24 01:18:27;;;;;;;6.47;4.57;;;;;;;12.17;71.05;64227.50;5051743;28;20224;-61
2023/04/24 01:20:57;;;;;;;8.40;3.93;;;;;;;12.11;71.15;64217.84;5051876;28;20331;-61
2023/04/24 01:23:22;;;;;;;9.33;4.47;;;;;;;12.12;72.62;64224.00;5051862;28;20242;-61
2023/04/24 01:25:49;;;;;;;7.30;4.63;;;;;;;12.22;73.20;64232.44;5051658;28;20675;-61
2023/04/24 01:28:15;;;;;;;7.50;4.27;;;;;;;12.13;74.18;64223.13;5051605;28;20205;-60
2023/04/24 01:30:41;;;;;;;7.83;4.23;;;;;;;12.24;72.96;64234.63;5050368;28;20552;-60
2023/04/24 01:33:06;;;;;;;5.30;4.30;;;;;;;12.30;71.79;64241.75;5017278;28;20687;-58
2023/04/24 01:35:32;;;;;;;7.77;4.57;;;;;;;12.07;72.63;64213.47;5051366;28;20186;-57
2023/04/24 01:37:58;;;;;;;6.70;4.43;;;;;;;11.67;74.54;64173.25;5051379;28;20221;-56
2023/04/24 01:40:23;;;;;;;5.47;4.63;;;;;;;11.40;77.33;64140.56;5051321;28;20544;-57
2023/04/24 01:42:49;;;;;;;5.93;4.60;;;;;;;11.53;75.26;64157.88;5051555;28;20186;-56
2023/04/24 01:45:14;;;;;;;6.10;4.90;;;;;;;11.64;74.19;64169.94;5051274;28;20721;-57
2023/04/24 01:47:40;;;;;;;9.33;5.00;;;;;;;11.57;76.68;64164.25;5051396;28;20664;-57
2023/04/24 01:50:07;;;;;;;7.97;4.80;;;;;;;11.57;75.54;64162.25;5051321;28;20574;-58
2023/04/24 01:52:33;;;;;;;7.17;5.17;;;;;;;11.42;76.80;64145.28;5051203;28;20189;-57
2023/04/24 01:55:03;;;;;;;8.03;4.87;;;;;;;11.31;78.45;64130.72;5051194;28;20301;-59
2023/04/24 01:57:30;;;;;;;6.90;4.83;;;;;;;11.51;78.08;64153.16;5033258;28;20603;-58
2023/04/24 01:59:56;;;;;;;6.57;5.50;;;;;;;11.51;77.17;64155.69;5051065;28;20229;-59
2023/04/24 02:02:23;;;;;;;5.93;4.77;;;;;;;11.69;76.40;64175.44;5051105;28;20675;-60
2023/04/24 02:04:49;;;;;;;6.80;4.53;;;;;;;11.65;77.55;64173.56;5050943;28;20228;-59
2023/04/24 02:07:15;;;;;;;7.00;4.87;;;;;;;11.49;78.42;64156.00;5050999;28;20188;-59
2023/04/24 02:09:40;;;;;;;7.90;4.80;;;;;;;11.04;78.59;64106.75;5050261;28;20373;-61
2023/04/24 02:12:05;;;;;;;7.47;5.07;;;;;;;10.67;80.08;64063.69;5050862;28;20185;-60
2023/04/24 02:14:31;;;;;;;7.13;5.23;;;;;;;11.07;80.64;64110.00;5051204;28;20706;-59
2023/04/24 02:16:57;;;;;;;7.33;5.33;;;;;;;11.19;80.29;64120.63;5033030;28;20222;-58
2023/04/24 02:19:23;;;;;;;8.23;5.33;;;;;;;10.93;78.35;64094.69;5050929;28;20300;-56
2023/04/24 02:21:48;;;;;;;7.60;4.57;;;;;;;10.56;79.75;64051.66;5050891;28;20239;-56
2023/04/24 02:24:13;;;;;;;8.40;5.10;;;;;;;10.80;82.75;64080.47;5050645;28;20552;-57
2023/04/24 02:26:39;;;;;;;9.13;5.20;;;;;;;10.95;79.83;64096.88;5050887;28;20186;-57
2023/04/24 02:29:04;;;;;;;8.73;4.53;;;;;;;10.29;81.24;64024.63;5051033;28;20213;-58
2023/04/24 02:31:30;;;;;;;5.03;4.53;;;;;;;10.03;83.71;63996.72;5050698;28;20193;-59
2023/04/24 02:33:56;;;;;;;5.67;4.43;;;;;;;10.40;83.59;64039.19;5050405;28;20638;-57
2023/04/24 02:36:21;;;;;;;5.67;4.43;;;;;;;10.48;82.01;64042.91;5050506;28;20627;-58
2023/04/24 02:38:46;;;;;;;9.27;4.93;;;;;;;10.42;83.12;64036.91;5050683;28;20209;-57
2023/04/24 02:41:12;;;;;;;5.93;4.60;;;;;;;10.48;82.33;64045.44;5053702;28;20191;-57
2023/04/24 02:43:37;;;;;;;5.80;4.60;;;;;;;10.79;82.56;64076.84;5057205;28;20607;-61
2023/04/24 02:46:02;;;;;;;5.70;4.73;;;;;;;10.97;81.69;64096.53;5057110;28;20205;-62
2023/04/24 02:48:28;;;;;;;4.87;4.30;;;;;;;11.02;81.29;64102.03;5057015;28;20239;-57
2023/04/24 02:50:53;;;;;;;8.30;4.63;;;;;;;11.09;81.43;64109.69;5057182;28;20193;-57
2023/04/24 02:53:19;;;;;;;8.33;4.73;;;;;;;11.23;81.45;64125.00;5057278;28;20215;-60
2023/04/24 02:55:45;;;;;;;7.67;5.27;;;;;;;11.17;79.69;64118.44;5057216;28;20185;-59
2023/04/24 02:58:12;;;;;;;7.57;4.87;;;;;;;11.02;79.30;64104.53;5057068;28;20221;-59
2023/04/24 03:00:38;;;;;;;9.60;5.00;;;;;;;11.16;80.20;64119.31;5056980;28;20197;-59
2023/04/24 03:03:03;;;;;;;8.37;5.13;;;;;;;11.53;77.38;64157.88;5038958;28;20213;-59
2023/04/24 03:05:30;;;;;;;13.43;5.17;;;;;;;11.31;78.29;64136.28;5056927;28;20674;-58
2023/04/24 03:07:56;;;;;;;13.33;6.13;;;;;;;11.18;80.65;64122.06;5056597;28;20209;-56
2023/04/24 03:10:24;;;;;;;8.50;4.70;;;;;;;11.09;79.61;64109.69;5056849;28;20199;-57
2023/04/24 03:12:51;;;;;;;8.17;5.17;;;;;;;11.13;80.11;64114.06;5056585;28;20245;-57
2023/04/24 03:15:16;;;;;;;9.10;5.70;;;;;;;11.14;77.96;64117.69;5056739;28;20686;-57
2023/04/24 03:17:42;;;;;;;9.47;5.67;;;;;;;11.20;79.25;64121.75;5056667;28;20213;-58
2023/04/24 03:20:08;;;;;;;8.07;5.40;;;;;;;11.26;78.33;64130.84;5056706;28;20220;-57
2023/04/24 03:22:34;;;;;;;7.77;4.97;;;;;;;10.99;78.83;64101.81;5056512;28;20281;-56
2023/04/24 03:25:00;;;;;;;15.03;5.93;;;;;;;10.86;79.30;64082.00;5056753;28;20262;-57
2023/04/24 03:27:25;;;;;;;6.27;5.07;;;;;;;10.90;79.79;64088.88;5056399;28;20599;-58
2023/04/24 03:29:55;;;;;;;12.37;5.83;;;;;;;10.50;81.31;64045.09;5056351;28;20259;-56
2023/04/24 03:32:24;;;;;;;9.60;5.53;;;;;;;10.62;81.12;64058.78;5056276;28;20246;-59
2023/04/24 03:34:50;;;;;;;7.13;5.70;;;;;;;10.57;81.81;64053.31;5056556;28;20296;-60
2023/04/24 03:37:16;;;;;;;13.87;5.37;;;;;;;10.23;83.10;64020.59;5056543;28;20295;-57
2023/04/24 03:39:42;;;;;;;9.23;5.37;;;;;;;10.28;84.79;64021.56;5056476;28;20213;-61
2023/04/24 03:42:08;;;;;;;14.73;6.30;;;;;;;10.22;84.27;64014.47;5056349;28;20545;-57
2023/04/24 03:44:34;;;;;;;9.73;5.47;;;;;;;10.17;84.47;64009.53;5056344;28;20224;-58
2023/04/24 03:47:00;;;;;;;8.10;5.80;;;;;;;10.04;85.26;63998.34;5038523;28;20189;-57
2023/04/24 03:49:25;;;;;;;8.87;5.30;;;;;;;9.86;86.62;63978.66;5056433;28;20270;-57
2023/04/24 03:51:52;;;;;;;12.00;6.10;;;;;;;9.89;86.87;63979.44;5055491;28;20580;-56
2023/04/24 03:54:18;;;;;;;12.70;7.50;;;;;;;10.18;86.60;64013.13;5050877;28;20244;-58
2023/04/24 03:56:43;;;;;;;7.77;5.77;;;;;;;10.47;86.42;64044.88;5034930;28;20237;-59
2023/04/24 03:59:08;;;;;;;22.63;14.80;;;;;;;10.73;86.67;64068.28;5053144;28;20239;-57
2023/04/24 04:01:36;;;;;;;20.30;10.67;;;;;;;10.92;83.27;64093.59;5052650;28;20747;-57
2023/04/24 04:04:03;;;;;;;11.23;7.10;;;;;;;10.98;82.59;64097.66;5034611;28;20580;-57
2023/04/24 04:06:36;;;;;;;6.13;5.07;;;;;;;10.49;83.82;64044.53;5052566;28;20189;-58
2023/04/24 04:09:01;;;;;;;9.27;5.63;;;;;;;10.88;84.11;64087.25;5052907;28;20244;-60
2023/04/24 04:11:27;;;;;;;10.67;6.07;;;;;;;11.06;82.66;64106.41;5051434;28;20667;-62
2023/04/24 04:13:52;;;;;;;7.33;6.10;;;;;;;10.40;83.12;64031.63;5052532;28;20278;-60
2023/04/24 04:16:18;;;;;;;10.33;5.77;;;;;;;10.19;85.12;64011.72;5052603;28;20213;-62
2023/04/24 04:18:44;;;;;;;7.43;5.53;;;;;;;10.44;84.88;64039.09;5052934;28;20753;-61
2023/04/24 04:21:16;;;;;;;8.37;6.00;;;;;;;10.68;84.66;64067.31;5052642;28;20185;-60
2023/04/24 04:23:41;;;;;;;8.97;6.33;;;;;;;10.69;83.72;64068.97;5052645;28;20249;-61
2023/04/24 04:26:07;;;;;;;7.87;4.80;;;;;;;11.11;82.38;64111.88;5052775;28;20272;-61
2023/04/24 04:28:33;;;;;;;10.20;8.00;;;;;;;11.64;100.00;64172.47;5052356;28;20216;-61
2023/04/24 04:30:58;;;;;;;11.23;5.17;;;;;;;12.20;84.74;64230.78;5052167;28;20181;-60
2023/04/24 04:33:25;;;;;;;7.23;5.77;;;;;;;12.46;96.63;64259.28;5051038;28;20209;-60
2023/04/24 04:35:56;;;;;;;11.77;9.60;;;;;;;13.47;100.00;64369.56;5052229;28;20186;-61
2023/04/24 04:38:22;;;;;;;7.53;4.67;;;;;;;13.92;77.76;64420.97;5052324;28;20209;-57
2023/04/24 04:40:48;;;;;;;7.45;5.22;;;;;;;13.60;71.92;64380.22;5052193;28;20186;-58
2023/04/24 04:43:14;;;;;;;8.98;6.03;;;;;;;12.98;73.80;64313.25;5052095;28;20215;-57
2023/04/24 04:45:41;;;;;;;8.77;6.87;;;;;;;12.24;75.52;64237.16;5034305;28;20194;-58
2023/04/24 04:48:08;;;;;;;8.40;5.65;;;;;;;12.32;75.91;64243.41;5052285;28;20691;-57
2023/04/24 04:50:34;;;;;;;7.70;5.90;;;;;;;12.38;76.54;64249.97;5052090;28;20194;-57
2023/04/24 04:53:00;;;;;;;22.92;13.55;;;;;;;12.24;75.79;64234.63;5052114;28;20263;-56
2023/04/24 04:55:25;;;;;;;18.35;12.43;;;;;;;11.92;78.06;64197.56;5052073;28;20196;-57
2023/04/24 04:57:51;;;;;;;12.60;8.13;;;;;;;11.46;75.93;64149.66;5051792;28;20749;-58
2023/04/24 05:00:17;;;;;;;12.60;6.03;;;;;;;11.54;76.08;64158.44;5051675;28;20713;-58
2023/04/24 05:02:43;;;;;;;21.67;14.07;;;;;;;11.69;77.73;64177.41;5051906;28;20190;-58
2023/04/24 05:05:08;;;;;;;11.63;7.50;;;;;;;11.43;76.30;64146.91;5051719;28;20182;-58
2023/04/24 05:07:34;;;;;;;7.57;5.87;;;;;;;10.97;77.49;64099.63;5051694;28;20571;-57
2023/04/24 05:10:00;;;;;;;10.03;7.37;;;;;;;11.10;78.19;64112.75;5051636;28;20301;-59
2023/04/24 05:12:26;;;;;;;9.83;6.03;;;;;;;11.38;78.82;64141.44;5051479;28;20675;-60
2023/04/24 05:14:52;;;;;;;9.83;6.93;;;;;;;11.48;78.40;64154.94;5051815;28;20197;-59
2023/04/24 05:17:17;;;;;;;9.53;6.03;;;;;;;11.37;76.18;64142.88;5051451;28;20637;-60
2023/04/24 05:19:43;;;;;;;8.27;5.27;;;;;;;11.27;76.15;64131.91;5051376;28;20573;-59
2023/04/24 05:22:09;;;;;;;13.90;5.27;;;;;;;11.48;77.12;64152.41;5051377;28;20687;-57
2023/04/24 05:24:35;;;;;;;10.43;4.70;;;;;;;11.63;77.87;64168.84;5051298;28;20205;-60
2023/04/24 05:27:02;;;;;;;12.47;4.90;;;;;;;11.78;78.81;64185.31;5051278;28;20663;-59
2023/04/24 05:29:30;;;;;;;9.30;5.60;;;;;;;11.93;75.42;64200.63;5051888;28;20359;-60
2023/04/24 05:31:56;;;;;;;10.30;4.83;;;;;;;11.84;75.57;64191.31;5051538;28;20268;-59
2023/04/24 05:34:21;;;;;;;7.00;5.07;;;;;;;11.96;75.11;64203.94;5033767;28;20315;-59
2023/04/24 05:36:47;;;;;;;8.17;5.47;;;;;;;11.58;76.64;64162.81;5051328;28;20209;-59
2023/04/24 05:39:13;;;;;;;7.00;4.83;;;;;;;11.85;77.33;64192.44;5033053;28;20696;-58
2023/04/24 05:41:38;;;;;;;9.77;6.03;;;;;;;11.82;76.38;64191.66;5051198;28;20186;-59
2023/04/24 05:44:05;;;;;;;11.33;5.87;;;;;;;11.88;76.88;64195.72;5051013;28;20205;-58
2023/04/24 05:46:30;;;;;;;7.80;5.43;;;;;;;11.89;75.37;64196.25;5050958;28;20208;-60
2023/04/24 05:48:55;;;;;;;7.67;5.13;;;;;;;12.10;75.36;64219.81;5049727;28;20221;-58
2023/04/24 05:51:21;;;;;;;10.27;4.73;;;;;;;12.25;72.76;64236.28;5050723;28;20578;-59
2023/04/24 05:53:46;;;;;;;7.67;5.70;;;;;;;12.14;73.81;64223.66;5050635;28;20633;-59
2023/04/24 05:56:12;;;;;;;8.70;5.40;;;;;;;11.98;74.52;64206.13;5051020;28;20625;-60
2023/04/24 05:58:37;;;;;;;8.07;5.80;;;;;;;12.10;73.32;64219.28;5050847;28;20248;-60
2023/04/24 06:01:03;;;;;;;9.43;5.80;;;;;;;11.76;74.39;64182.56;5050190;28;20694;-60
2023/04/24 06:03:28;;;;;;;8.20;5.60;;;;;;;11.67;74.35;64175.22;5049431;28;20217;-59
2023/04/24 06:05:54;;;;;;;13.83;6.20;;;;;;;11.67;73.80;64175.78;5049907;28;20184;-58
2023/04/24 06:08:19;;;;;;;12.50;6.77;;;;;;;11.47;74.81;64151.31;5049860;28;20715;-60
2023/04/24 06:10:45;;;;;;;11.93;6.33;;;;;;;11.31;76.08;64136.28;5050802;28;20272;-58
2023/04/24 06:13:11;;;;;;;8.67;5.87;;;;;;;11.73;76.66;64179.28;5050678;28;20209;-60
2023/04/24 06:15:38;;;;;;;8.70;5.60;;;;;;;11.95;74.42;64200.88;5049894;28;20200;-60
2023/04/24 06:18:03;;;;;;;11.20;6.00;;;;;;;11.90;75.61;64197.38;5050638;28;20221;-58
2023/04/24 06:20:29;;;;;;;9.83;5.50;;;;;;;12.11;76.03;64220.94;5050696;28;20204;-60
2023/04/24 06:22:54;;;;;;;10.70;6.20;;;;;;;12.11;74.39;64220.94;5050541;28;20217;-59
2023/04/24 06:25:20;;;;;;;15.07;8.80;;;;;;;11.97;75.39;64207.56;5050770;28;20189;-59
2023/04/24 06:27:46;;;;;;;17.23;8.93;;;;;;;12.11;76.34;64222.91;5050633;28;20189;-59
2023/04/24 06:30:12;;;;;;;10.20;6.67;;;;;;;12.54;74.38;64268.06;5050505;28;20619;-60
2023/04/24 06:32:37;;;;;;;9.10;7.10;;;;;;;12.72;74.37;64289.25;5050592;28;20208;-59
2023/04/24 06:35:03;;;;;;;14.10;8.15;;;;;;;12.62;72.42;64276.31;5050627;28;20323;-59
2023/04/24 06:37:29;;;;;;;10.13;7.20;;;;;;;12.46;71.83;64258.75;5050058;28;20225;-58
2023/04/24 06:39:54;;;;;;;12.83;6.27;;;;;;;13.70;100.00;64393.72;5050490;28;20263;-58
2023/04/24 06:42:24;;;;;;;7.20;5.93;;;;;;;14.22;nan;64450.84;5050293;28;20185;-59
2023/04/24 06:44:50;;;;;;;9.18;6.82;;;;;;;14.72;97.54;64503.28;5050014;28;20221;-58
2023/04/24 06:47:15;;;;;;;9.68;6.22;;;;;;;16.07;91.23;64650.13;5049404;28;20251;-59
2023/04/24 06:49:41;;;;;;;9.68;6.03;;;;;;;18.01;80.41;64865.84;5031273;28;20249;-59
2023/04/24 06:52:07;;;;;;;9.18;6.32;;;;;;;18.74;64.48;64945.84;5049030;28;20209;-61
2023/04/24 06:54:33;;;;;;;8.55;5.65;;;;;;;18.86;67.86;64959.09;5050279;28;20578;-59
2023/04/24 06:57:00;;;;;;;8.82;6.15;;;;;;;19.45;62.29;65018.00;5050186;28;20209;-61
2023/04/24 06:59:26;;;;;;;10.43;5.82;;;;;;;19.52;60.23;65028.84;5050595;28;20266;-58
2023/04/24 07:01:52;;;;;;;11.40;6.28;;;;;;;19.25;60.32;64996.44;5049882;28;20680;-59
2023/04/24 07:04:18;;;;;;;9.63;6.45;;;;;;;18.60;51.34;64930.41;5050542;28;20213;-59
2023/04/24 07:06:48;;;;;;;7.50;6.53;;;;;;;16.95;53.90;64743.94;5049790;28;20272;-58
2023/04/24 07:09:15;;;;;;;7.78;6.32;;;;;;;15.98;55.37;64643.84;5050487;28;20259;-58
2023/04/24 07:11:41;;;;;;;9.82;6.55;;;;;;;14.92;59.58;64527.81;5048729;28;20200;-60
2023/04/24 07:14:07;;;;;;;13.80;6.68;;;;;;;14.76;61.81;64507.13;5032340;28;20209;-58
2023/04/24 07:16:33;;;;;;;10.63;6.93;;;;;;;14.79;62.29;64510.97;5049069;28;20239;-58
2023/04/24 07:18:58;;;;;;;9.05;7.15;;;;;;;14.07;64.28;64431.84;5048909;28;20216;-59
2023/04/24 07:21:23;;;;;;;12.73;7.20;;;;;;;13.92;64.41;64417.88;5032272;28;20192;-58
2023/04/24 07:23:49;;;;;;;10.45;6.53;;;;;;;14.43;64.59;64473.94;5049222;28;20228;-59
2023/04/24 07:26:14;;;;;;;12.82;6.95;;;;;;;14.20;64.80;64451.19;5050113;28;20601;-59
2023/04/24 07:28:40;;;;;;;15.70;7.50;;;;;;;14.47;65.37;64480.88;5051713;28;20217;-58
2023/04/24 07:31:06;;;;;;;9.77;6.93;;;;;;;14.68;63.38;64501.44;5035485;28;20269;-58
2023/04/24 07:33:32;;;;;;;9.02;6.35;;;;;;;14.99;62.06;64535.50;5052189;28;20262;-57
2023/04/24 07:35:59;;;;;;;11.95;8.20;;;;;;;14.74;63.30;64508.03;5053011;28;20181;-58
2023/04/24 07:38:25;;;;;;;16.35;8.25;;;;;;;14.90;64.82;64525.06;5033798;28;20217;-60
2023/04/24 07:40:51;;;;;;;9.88;6.65;;;;;;;15.05;64.72;64542.09;5052363;28;20275;-60
2023/04/24 07:43:17;;;;;;;12.68;8.20;;;;;;;14.98;63.89;64533.84;5052264;28;20679;-58
2023/04/24 07:45:42;;;;;;;10.27;6.68;;;;;;;15.14;63.53;64552.00;5053118;28;20185;-59
2023/04/24 07:48:08;;;;;;;15.32;6.90;;;;;;;15.06;64.23;64543.19;5053318;28;20583;-59
2023/04/24 07:50:34;;;;;;;6.63;5.20;;;;;;;15.26;62.92;64562.09;5053158;28;20659;-59
2023/04/24 07:53:00;;;;;;;11.35;4.82;;;;;;;15.59;60.61;64595.88;5053135;28;20688;-58
2023/04/24 07:55:25;;;;;;;8.23;5.10;;;;;;;15.68;62.20;64607.75;5052869;28;20734;-60
2023/04/24 07:57:51;;;;;;;6.35;4.10;;;;;;;15.73;60.06;64613.25;5052840;28;20314;-60
2023/04/24 08:00:17;;;;;;;4.97;4.10;;;;;;;15.92;59.93;64634.16;5052147;28;20181;-58
2023/04/24 08:02:42;;;;;;;8.32;4.55;;;;;;;15.84;60.48;64627.88;5034704;28;20284;-61
2023/04/24 08:05:08;;;;;;;6.35;5.55;;;;;;;16.02;60.53;64645.16;5052909;28;20573;-58
2023/04/24 08:07:35;;;;;;;12.75;6.72;;;;;;;16.04;59.14;64646.81;5052975;28;20206;-59
2023/04/24 08:10:00;;;;;;;12.25;6.53;;;;;;;16.08;59.95;64651.75;5052945;28;20194;-57
2023/04/24 08:12:26;;;;;;;13.40;6.75;;;;;;;16.12;61.12;64658.69;5052630;28;20185;-58
2023/04/24 08:14:51;;;;;;;10.70;6.78;;;;;;;16.18;61.62;64662.75;5052525;28;20198;-57
2023/04/24 08:17:17;;;;;;;11.40;6.15;;;;;;;16.16;59.30;64660.56;5052621;28;20769;-57
2023/04/24 08:19:47;;;;;;;19.08;11.43;;;;;;;16.28;60.01;64673.22;5052700;28;20220;-58
2023/04/24 08:22:13;;;;;;;15.93;6.22;;;;;;;16.54;60.15;64702.41;5051296;28;20199;-57
2023/04/24 08:24:38;;;;;;;8.88;6.13;;;;;;;16.45;60.43;64691.94;5052471;28;20596;-58
2023/04/24 08:27:04;;;;;;;11.63;5.68;;;;;;;16.60;61.36;64708.47;5052845;28;20654;-58
2023/04/24 08:29:29;;;;;;;10.52;5.95;;;;;;;16.69;60.36;64720.94;5052730;28;20210;-59
2023/04/24 08:31:54;;;;;;;8.95;5.97;;;;;;;16.97;60.51;64749.22;5034506;28;20196;-58
2023/04/24 08:34:21;;;;;;;12.70;5.63;;;;;;;17.33;58.93;64790.88;5052629;28;20277;-58
2023/04/24 08:36:47;;;;;;;13.57;6.57;;;;;;;17.19;58.88;64772.91;5034393;28;20217;-58
2023/04/24 08:39:12;;;;;;;12.68;7.32;;;;;;;17.10;59.43;64766.09;5050373;28;20214;-59
2023/04/24 08:41:42;;;;;;;7.93;5.88;;;;;;;16.81;58.88;64728.50;5052307;28;20186;-58
2023/04/24 08:44:08;;;;;;;14.57;7.43;;;;;;;17.27;58.33;64781.72;5052282;28;20210;-58
2023/04/24 08:46:35;;;;;;;15.07;6.50;;;;;;;17.27;56.57;64781.72;5034344;28;20189;-59
2023/04/24 08:49:02;;;;;;;7.72;4.97;;;;;;;17.50;55.81;64810.19;5051941;28;20217;-61
2023/04/24 08:51:30;;;;;;;7.18;5.32;;;;;;;17.67;55.08;64825.81;5052161;28;20217;-61
2023/04/24 08:53:57;;;;;;;7.78;5.05;;;;;;;17.83;57.37;64848.00;5051482;28;20225;-59
2023/04/24 08:56:24;;;;;;;8.68;6.00;;;;;;;17.76;57.84;64838.28;5051874;28;20661;-61
2023/04/24 08:58:53;;;;;;;7.85;5.05;;;;;;;17.66;55.30;64824.72;5050273;28;20206;-61
2023/04/24 09:01:20;;;;;;;9.60;5.35;;;;;;;17.91;56.59;64854.81;5051764;28;20214;-62
2023/04/24 09:03:49;;;;;;;8.32;5.65;;;;;;;18.20;56.21;64884.25;5050562;28;20217;-62
2023/04/24 09:06:17;;;;;;;9.07;4.82;;;;;;;18.54;53.84;64923.22;5051831;28;20186;-61
2023/04/24 09:08:45;;;;;;;9.32;4.68;;;;;;;18.54;52.30;64920.66;5033570;28;20210;-57
2023/04/24 09:11:11;;;;;;;6.57;4.57;;;;;;;18.52;51.44;64918.47;5051912;28;20307;-59
2023/04/24 09:13:37;;;;;;;6.22;4.03;;;;;;;18.75;53.93;64944.38;5051628;28;20241;-60
2023/04/24 09:16:03;;;;;;;6.30;4.18;;;;;;;19.10;51.76;64983.00;5051756;28;20196;-61
2023/04/24 09:18:28;;;;;;;8.07;4.28;;;;;;;19.55;51.87;65029.59;5051886;28;20221;-61
2023/04/24 09:21:03;;;;;;;8.25;4.65;;;;;;;19.54;49.13;65028.50;5051756;28;20607;-61
2023/04/24 09:23:31;;;;;;;6.72;3.72;;;;;;;19.98;49.50;65079.63;5051823;28;20248;-62
2023/04/24 09:25:59;;;;;;;6.25;4.50;;;;;;;19.69;49.81;65047.06;5051579;28;20197;-61
2023/04/24 09:28:30;;;;;;;6.50;4.55;;;;;;;20.01;50.88;65082.41;5051766;28;20267;-61
2023/04/24 09:31:05;;;;;;;7.50;4.47;;;;;;;19.87;49.15;65067.50;5051640;28;20182;-61
2023/04/24 09:33:30;;;;;;;6.53;4.65;;;;;;;19.53;50.36;65031.94;5051478;28;20300;-61
2023/04/24 09:35:56;;;;;;;8.02;4.72;;;;;;;19.67;50.70;65044.84;5033469;28;20218;-61
2023/04/24 09:38:37;;;;;;;7.47;4.18;;;;;;;19.85;50.19;65067.84;5051416;28;20221;-61
2023/04/24 09:41:08;;;;;;;5.47;4.60;;;;;;;19.80;49.03;65059.75;5051137;28;20191;-61
2023/04/24 09:43:35;;;;;;;5.13;3.83;;;;;;;19.86;47.16;65066.38;5050260;28;20296;-60
2023/04/24 09:46:07;;;;;;;5.07;4.05;;;;;;;20.07;47.93;65087.03;5051087;28;20197;-61
2023/04/24 09:48:34;;;;;;;8.95;4.35;;;;;;;20.36;48.46;65120.53;5051314;28;20691;-58
2023/04/24 09:51:02;;;;;;;5.25;4.25;;;;;;;20.44;47.66;65129.38;5048981;28;20224;-58
2023/04/24 09:53:28;;;;;;;4.50;4.05;;;;;;;20.75;47.22;65161.06;5050969;28;20206;-58
2023/04/24 09:55:53;;;;;;;6.82;4.63;;;;;;;21.12;45.86;65201.44;5051294;28;20616;-58
2023/04/24 09:58:29;;;;;;;7.00;5.70;;;;;;;20.75;47.26;65163.63;5051404;28;20217;-58
2023/04/24 10:00:56;;;;;;;6.68;5.20;;;;;;;20.89;44.87;65179.09;5051225;28;20196;-61
2023/04/24 10:03:26;;;;;;;8.40;4.32;;;;;;;21.27;44.92;65218.03;5051199;28;20220;-61
2023/04/24 10:05:53;;;;;;;5.15;4.65;;;;;;;21.48;44.52;65244.38;5051204;28;20189;-61
2023/04/24 10:08:19;;;;;;;6.70;4.07;;;;;;;20.95;44.55;65185.72;5051047;28;20208;-61
2023/04/24 10:10:45;;;;;;;6.55;4.53;;;;;;;21.33;42.67;65225.22;5050856;28;20235;-61
2023/04/24 10:13:13;;;;;;;8.02;4.20;;;;;;;21.54;44.26;65248.44;5050987;28;20349;-62
2023/04/24 10:15:40;;;;;;;7.70;4.25;;;;;;;22.00;43.26;65301.38;5050843;28;20185;-60
2023/04/24 10:18:06;;;;;;;8.98;3.88;;;;;;;22.64;43.66;65366.53;5050791;28;20290;-59
2023/04/24 10:20:35;;;;;;;5.35;4.32;;;;;;;22.52;41.86;65356.34;5050700;28;20705;-59
2023/04/24 10:23:01;;;;;;;6.82;4.32;;;;;;;22.67;42.64;65375.00;5050659;28;20687;-60
2023/04/24 10:25:30;;;;;;;5.75;3.75;;;;;;;22.71;42.11;65376.84;5050051;28;20185;-60
2023/04/24 10:28:02;;;;;;;9.38;5.60;;;;;;;22.31;41.88;65332.56;5049974;28;20210;-60
2023/04/24 10:30:37;;;;;;;7.10;4.72;;;;;;;23.03;44.27;65414.31;5050827;28;20204;-61
2023/04/24 10:33:08;;;;;;;5.63;4.20;;;;;;;23.60;40.63;65474.34;5032833;28;20225;-60
2023/04/24 10:35:41;;;;;;;5.65;4.10;;;;;;;23.55;39.30;65469.38;5050450;28;20170;-59
2023/04/24 10:38:10;;;;;;;4.85;4.07;;;;;;;23.54;38.39;65465.13;5050642;28;20240;-59
2023/04/24 10:40:36;;;;;;;7.00;4.35;;;;;;;23.21;37.25;65434.81;5050217;28;20185;-59
2023/04/24 10:43:06;;;;;;;8.02;4.45;;;;;;;23.17;37.28;65429.81;5050452;28;20702;-63
2023/04/24 10:45:31;;;;;;;5.60;4.65;;;;;;;23.22;37.67;65432.78;5049884;28;20196;-61
2023/04/24 10:48:10;;;;;;;6.47;3.60;;;;;;;23.21;37.67;65434.81;5050373;28;20210;-61
2023/04/24 10:50:42;;;;;;;4.13;3.55;;;;;;;22.92;38.20;65400.13;5050229;28;20193;-62
2023/04/24 10:53:26;;;;;;;7.25;4.20;;;;;;;22.56;39.37;65363.34;5050445;28;20247;-62
2023/04/24 10:56:05;;;;;;;5.43;3.80;;;;;;;22.06;38.92;65307.47;5050681;28;20260;-62
2023/04/24 10:58:38;;;;;;;4.72;3.70;;;;;;;22.46;37.50;65349.72;5050056;28;20213;-62
2023/04/24 11:01:04;;;;;;;7.97;4.35;;;;;;;22.40;38.53;65345.09;5050352;28;20268;-62
2023/04/24 11:03:34;;;;;;;5.88;4.03;;;;;;;22.34;37.71;65335.88;5053297;28;20244;-61
2023/04/24 11:06:06;;;;;;;5.05;3.58;;;;;;;22.25;37.69;65325.91;5052286;28;20197;-61
2023/04/24 11:08:45;;;;;;;4.75;3.80;;;;;;;21.54;36.85;65251.00;5054209;28;20213;-61
2023/04/24 11:11:16;;;;;;;7.47;3.50;;;;;;;21.14;37.18;65206.22;5053125;28;20189;-62
2023/04/24 11:13:53;;;;;;;6.10;3.40;;;;;;;20.70;37.90;65158.66;5053930;28;20771;-62
2023/04/24 11:16:22;;;;;;;7.25;3.45;;;;;;;20.64;38.02;65151.47;5053722;28;20224;-61
2023/04/24 11:18:54;;;;;;;4.10;3.40;;;;;;;20.51;38.64;65137.09;5053461;28;20245;-63
2023/04/24 11:21:20;;;;;;;4.72;3.67;;;;;;;20.34;38.56;65118.34;5053649;28;20204;-61
2023/04/24 11:23:46;;;;;;;5.68;3.50;;;;;;;20.23;39.57;65103.59;5053359;28;20221;-62
2023/04/24 11:26:22;;;;;;;6.15;3.42;;;;;;;19.91;39.90;65071.34;5053513;28;20190;-62
2023/04/24 11:28:49;;;;;;;6.30;3.80;;;;;;;19.74;39.64;65053.13;5035730;28;20683;-62